sensor_id;sensor_type;location;lat;lon;timestamp;P1;P2;P0
34176;PMS7003;20450;49.074;9.158;2022-11-15T00:00:17;26.25;25.25;22.50
34176;PMS7003;20450;49.074;9.158;2022-11-15T00:03:03;11.50;11.50;10.75
34176;PMS7003;20450;49.074;9.158;2022-11-15T00:05:48;9.75;9.50;9.25
34176;PMS7003;20450;49.074;9.158;2022-11-15T00:08:35;11.25;10.50;10.00
34176;PMS7003;20450;49.074;9.158;2022-11-15T00:11:20;9.50;7.75;7.75
34176;PMS7003;20450;49.074;9.158;2022-11-15T00:14:06;7.50;7.50;6.75
34176;PMS7003;20450;49.074;9.158;2022-11-15T00:16:55;7.00;7.00;6.25
34176;PMS7003;20450;49.074;9.158;2022-11-15T00:19:40;5.75;5.75;5.25
34176;PMS7003;20450;49.074;9.158;2022-11-15T00:22:30;4.00;3.50;3.50
34176;PMS7003;20450;49.074;9.158;2022-11-15T00:25:18;6.00;6.00;4.75
34176;PMS7003;20450;49.074;9.158;2022-11-15T00:28:04;6.25;6.25;5.50
34176;PMS7003;20450;49.074;9.158;2022-11-15T00:30:49;6.00;6.00;5.25
34176;PMS7003;20450;49.074;9.158;2022-11-15T00:33:37;4.50;4.50;3.75
34176;PMS7003;20450;49.074;9.158;2022-11-15T00:36:23;7.25;7.25;6.25
34176;PMS7003;20450;49.074;9.158;2022-11-15T00:39:09;7.25;7.00;6.00
34176;PMS7003;20450;49.074;9.158;2022-11-15T00:41:55;6.25;6.00;5.00
34176;PMS7003;20450;49.074;9.158;2022-11-15T00:44:40;6.25;6.25;5.25
34176;PMS7003;20450;49.074;9.158;2022-11-15T00:47:25;9.75;9.75;8.50
34176;PMS7003;20450;49.074;9.158;2022-11-15T00:50:13;15.75;15.75;14.00
34176;PMS7003;20450;49.074;9.158;2022-11-15T00:53:00;9.25;9.25;7.75
34176;PMS7003;20450;49.074;9.158;2022-11-15T00:55:45;5.50;5.50;4.50
34176;PMS7003;20450;49.074;9.158;2022-11-15T00:58:31;7.75;6.00;4.75
34176;PMS7003;20450;49.074;9.158;2022-11-15T01:01:17;5.00;5.00;4.00
34176;PMS7003;20450;49.074;9.158;2022-11-15T01:04:03;5.75;4.75;4.00
34176;PMS7003;20450;49.074;9.158;2022-11-15T01:06:50;4.00;4.00;3.25
34176;PMS7003;20450;49.074;9.158;2022-11-15T01:09:36;4.00;4.00;3.00
34176;PMS7003;20450;49.074;9.158;2022-11-15T01:12:22;5.00;5.00;4.00
34176;PMS7003;20450;49.074;9.158;2022-11-15T01:15:08;13.00;13.00;12.75
34176;PMS7003;20450;49.074;9.158;2022-11-15T01:17:54;15.75;13.25;12.75
34176;PMS7003;20450;49.074;9.158;2022-11-15T01:20:40;15.25;15.25;14.75
34176;PMS7003;20450;49.074;9.158;2022-11-15T01:23:28;15.25;15.25;13.50
34176;PMS7003;20450;49.074;9.158;2022-11-15T01:26:15;13.25;13.25;12.00
34176;PMS7003;20450;49.074;9.158;2022-11-15T01:29:01;20.50;18.75;17.50
34176;PMS7003;20450;49.074;9.158;2022-11-15T01:31:47;13.75;13.75;13.50
34176;PMS7003;20450;49.074;9.158;2022-11-15T01:34:33;4.75;4.75;4.00
34176;PMS7003;20450;49.074;9.158;2022-11-15T01:37:18;6.00;6.00;5.00
34176;PMS7003;20450;49.074;9.158;2022-11-15T01:40:06;6.00;6.00;5.00
34176;PMS7003;20450;49.074;9.158;2022-11-15T01:42:52;5.00;5.00;3.50
34176;PMS7003;20450;49.074;9.158;2022-11-15T01:45:38;7.50;7.25;5.50
34176;PMS7003;20450;49.074;9.158;2022-11-15T01:48:24;7.75;6.50;5.00
34176;PMS7003;20450;49.074;9.158;2022-11-15T01:51:17;8.25;7.75;6.25
34176;PMS7003;20450;49.074;9.158;2022-11-15T01:54:08;8.50;7.00;5.25
34176;PMS7003;20450;49.074;9.158;2022-11-15T01:57:03;8.00;8.00;6.75
34176;PMS7003;20450;49.074;9.158;2022-11-15T01:59:55;3.50;3.50;2.50
34176;PMS7003;20450;49.074;9.158;2022-11-15T02:02:43;5.50;5.50;5.00
34176;PMS7003;20450;49.074;9.158;2022-11-15T02:05:29;8.00;8.00;5.50
34176;PMS7003;20450;49.074;9.158;2022-11-15T02:08:16;5.75;4.25;4.25
34176;PMS7003;20450;49.074;9.158;2022-11-15T02:11:04;5.50;5.50;4.25
34176;PMS7003;20450;49.074;9.158;2022-11-15T02:13:53;7.25;7.25;5.75
34176;PMS7003;20450;49.074;9.158;2022-11-15T02:16:42;7.50;7.50;5.75
34176;PMS7003;20450;49.074;9.158;2022-11-15T02:19:56;8.00;7.75;5.75
34176;PMS7003;20450;49.074;9.158;2022-11-15T02:23:41;8.50;7.25;6.00
34176;PMS7003;20450;49.074;9.158;2022-11-15T02:27:09;9.25;7.50;6.00
34176;PMS7003;20450;49.074;9.158;2022-11-15T02:30:36;7.75;7.75;5.75
34176;PMS7003;20450;49.074;9.158;2022-11-15T02:33:32;7.00;6.00;5.00
34176;PMS7003;20450;49.074;9.158;2022-11-15T02:36:34;4.25;4.25;3.75
34176;PMS7003;20450;49.074;9.158;2022-11-15T02:39:31;7.50;6.75;5.50
34176;PMS7003;20450;49.074;9.158;2022-11-15T02:42:28;7.00;6.75;4.75
34176;PMS7003;20450;49.074;9.158;2022-11-15T02:45:22;7.00;7.00;6.00
34176;PMS7003;20450;49.074;9.158;2022-11-15T02:48:16;5.50;4.25;4.00
34176;PMS7003;20450;49.074;9.158;2022-11-15T02:51:04;8.25;8.25;6.50
34176;PMS7003;20450;49.074;9.158;2022-11-15T02:53:51;10.25;8.75;7.50
34176;PMS7003;20450;49.074;9.158;2022-11-15T02:56:36;8.00;7.00;5.25
34176;PMS7003;20450;49.074;9.158;2022-11-15T02:59:38;8.25;7.25;6.25
34176;PMS7003;20450;49.074;9.158;2022-11-15T03:02:50;8.25;8.25;7.25
34176;PMS7003;20450;49.074;9.158;2022-11-15T03:06:22;6.00;6.00;5.50
34176;PMS7003;20450;49.074;9.158;2022-11-15T03:09:23;9.00;9.00;7.00
34176;PMS7003;20450;49.074;9.158;2022-11-15T03:12:25;8.00;8.00;6.50
34176;PMS7003;20450;49.074;9.158;2022-11-15T03:15:20;9.00;8.00;5.75
34176;PMS7003;20450;49.074;9.158;2022-11-15T03:18:15;5.75;5.75;4.50
34176;PMS7003;20450;49.074;9.158;2022-11-15T03:21:08;7.25;7.25;6.75
34176;PMS7003;20450;49.074;9.158;2022-11-15T03:24:00;4.25;4.25;4.00
34176;PMS7003;20450;49.074;9.158;2022-11-15T03:26:52;5.00;5.00;4.25
34176;PMS7003;20450;49.074;9.158;2022-11-15T03:29:42;8.00;8.00;6.25
34176;PMS7003;20450;49.074;9.158;2022-11-15T03:32:34;6.25;6.25;5.00
34176;PMS7003;20450;49.074;9.158;2022-11-15T03:35:25;10.75;9.00;8.50
34176;PMS7003;20450;49.074;9.158;2022-11-15T03:38:17;10.75;9.75;7.50
34176;PMS7003;20450;49.074;9.158;2022-11-15T03:41:11;8.25;8.25;6.50
34176;PMS7003;20450;49.074;9.158;2022-11-15T03:44:10;3.00;3.00;3.00
34176;PMS7003;20450;49.074;9.158;2022-11-15T03:47:03;8.75;8.75;7.00
34176;PMS7003;20450;49.074;9.158;2022-11-15T03:49:56;9.50;8.25;7.25
34176;PMS7003;20450;49.074;9.158;2022-11-15T03:52:48;10.25;10.25;9.25
34176;PMS7003;20450;49.074;9.158;2022-11-15T03:55:36;7.50;7.50;5.25
34176;PMS7003;20450;49.074;9.158;2022-11-15T03:58:23;11.75;9.00;7.50
34176;PMS7003;20450;49.074;9.158;2022-11-15T04:01:09;4.75;4.25;3.00
34176;PMS7003;20450;49.074;9.158;2022-11-15T04:03:54;7.25;6.50;5.25
34176;PMS7003;20450;49.074;9.158;2022-11-15T04:06:40;7.00;6.00;5.25
34176;PMS7003;20450;49.074;9.158;2022-11-15T04:09:25;8.50;7.00;5.75
34176;PMS7003;20450;49.074;9.158;2022-11-15T04:12:11;7.50;6.50;4.75
34176;PMS7003;20450;49.074;9.158;2022-11-15T04:14:59;7.75;7.50;5.75
34176;PMS7003;20450;49.074;9.158;2022-11-15T04:17:47;6.50;6.50;5.75
34176;PMS7003;20450;49.074;9.158;2022-11-15T04:20:34;9.25;9.25;7.00
34176;PMS7003;20450;49.074;9.158;2022-11-15T04:23:20;5.50;5.50;4.50
34176;PMS7003;20450;49.074;9.158;2022-11-15T04:26:08;6.00;6.00;4.50
34176;PMS7003;20450;49.074;9.158;2022-11-15T04:28:59;6.75;6.75;4.00
34176;PMS7003;20450;49.074;9.158;2022-11-15T04:31:46;6.25;4.50;4.25
34176;PMS7003;20450;49.074;9.158;2022-11-15T04:34:32;8.00;6.00;6.00
34176;PMS7003;20450;49.074;9.158;2022-11-15T04:37:18;5.75;4.50;4.00
34176;PMS7003;20450;49.074;9.158;2022-11-15T04:40:04;5.25;5.00;4.00
34176;PMS7003;20450;49.074;9.158;2022-11-15T04:42:52;4.00;4.00;4.00
34176;PMS7003;20450;49.074;9.158;2022-11-15T04:45:37;5.50;4.75;3.25
34176;PMS7003;20450;49.074;9.158;2022-11-15T04:48:25;9.00;6.50;5.50
34176;PMS7003;20450;49.074;9.158;2022-11-15T04:51:11;8.00;8.00;5.00
34176;PMS7003;20450;49.074;9.158;2022-11-15T04:53:56;6.50;5.75;4.50
34176;PMS7003;20450;49.074;9.158;2022-11-15T04:56:42;4.75;4.75;3.00
34176;PMS7003;20450;49.074;9.158;2022-11-15T04:59:27;6.50;5.75;3.75
34176;PMS7003;20450;49.074;9.158;2022-11-15T05:02:13;31.75;28.25;19.00
34176;PMS7003;20450;49.074;9.158;2022-11-15T05:05:00;20.75;18.25;11.50
34176;PMS7003;20450;49.074;9.158;2022-11-15T05:07:45;12.25;11.25;8.50
34176;PMS7003;20450;49.074;9.158;2022-11-15T05:10:31;10.00;10.00;7.75
34176;PMS7003;20450;49.074;9.158;2022-11-15T05:13:17;7.75;7.75;6.50
34176;PMS7003;20450;49.074;9.158;2022-11-15T05:16:02;9.25;9.25;6.25
34176;PMS7003;20450;49.074;9.158;2022-11-15T05:18:50;7.50;7.50;6.25
34176;PMS7003;20450;49.074;9.158;2022-11-15T05:21:38;6.75;6.75;6.00
34176;PMS7003;20450;49.074;9.158;2022-11-15T05:24:24;8.75;8.75;7.00
34176;PMS7003;20450;49.074;9.158;2022-11-15T05:27:09;6.00;6.00;4.75
34176;PMS7003;20450;49.074;9.158;2022-11-15T05:29:55;10.25;9.00;6.75
34176;PMS7003;20450;49.074;9.158;2022-11-15T05:32:42;11.00;9.50;6.50
34176;PMS7003;20450;49.074;9.158;2022-11-15T05:35:30;9.25;9.25;7.75
34176;PMS7003;20450;49.074;9.158;2022-11-15T05:38:25;9.25;9.00;6.25
34176;PMS7003;20450;49.074;9.158;2022-11-15T05:41:13;12.75;11.50;9.00
34176;PMS7003;20450;49.074;9.158;2022-11-15T05:44:07;11.50;11.25;8.25
34176;PMS7003;20450;49.074;9.158;2022-11-15T05:47:01;13.00;12.00;9.00
34176;PMS7003;20450;49.074;9.158;2022-11-15T05:49:52;6.75;6.75;5.50
34176;PMS7003;20450;49.074;9.158;2022-11-15T05:52:40;10.00;7.75;6.00
34176;PMS7003;20450;49.074;9.158;2022-11-15T05:55:32;9.25;8.50;6.00
34176;PMS7003;20450;49.074;9.158;2022-11-15T05:58:18;7.75;5.50;4.75
34176;PMS7003;20450;49.074;9.158;2022-11-15T06:01:05;5.75;5.75;4.25
34176;PMS7003;20450;49.074;9.158;2022-11-15T06:03:52;10.50;9.75;8.25
34176;PMS7003;20450;49.074;9.158;2022-11-15T06:06:42;9.75;9.75;7.75
34176;PMS7003;20450;49.074;9.158;2022-11-15T06:13:10;12.00;9.00;7.25
34176;PMS7003;20450;49.074;9.158;2022-11-15T06:15:55;10.25;9.25;6.75
34176;PMS7003;20450;49.074;9.158;2022-11-15T06:18:47;5.25;4.25;3.00
34176;PMS7003;20450;49.074;9.158;2022-11-15T06:21:32;4.75;4.75;4.50
34176;PMS7003;20450;49.074;9.158;2022-11-15T06:24:31;21.50;21.50;18.00
34176;PMS7003;20450;49.074;9.158;2022-11-15T06:27:43;16.50;15.50;13.00
34176;PMS7003;20450;49.074;9.158;2022-11-15T06:30:55;10.25;10.25;9.25
34176;PMS7003;20450;49.074;9.158;2022-11-15T06:33:42;9.25;9.25;7.50
34176;PMS7003;20450;49.074;9.158;2022-11-15T06:36:28;9.75;9.75;8.00
34176;PMS7003;20450;49.074;9.158;2022-11-15T06:39:21;10.75;10.75;8.75
34176;PMS7003;20450;49.074;9.158;2022-11-15T06:42:08;13.25;13.25;10.25
34176;PMS7003;20450;49.074;9.158;2022-11-15T06:44:54;10.50;10.50;8.00
34176;PMS7003;20450;49.074;9.158;2022-11-15T06:47:45;9.25;9.25;7.25
34176;PMS7003;20450;49.074;9.158;2022-11-15T06:50:32;8.50;6.75;6.00
34176;PMS7003;20450;49.074;9.158;2022-11-15T06:53:18;7.25;7.25;6.00
34176;PMS7003;20450;49.074;9.158;2022-11-15T06:56:05;9.75;9.75;8.00
34176;PMS7003;20450;49.074;9.158;2022-11-15T06:58:52;5.50;5.50;4.50
34176;PMS7003;20450;49.074;9.158;2022-11-15T07:01:38;7.00;7.00;4.75
34176;PMS7003;20450;49.074;9.158;2022-11-15T07:04:25;13.50;12.00;9.75
34176;PMS7003;20450;49.074;9.158;2022-11-15T07:07:11;9.67;7.67;5.67
34176;PMS7003;20450;49.074;9.158;2022-11-15T07:10:02;7.00;7.00;5.33
34176;PMS7003;20450;49.074;9.158;2022-11-15T07:12:48;8.67;7.67;6.33
34176;PMS7003;20450;49.074;9.158;2022-11-15T07:15:33;8.33;8.33;6.33
34176;PMS7003;20450;49.074;9.158;2022-11-15T07:18:19;8.00;8.00;6.67
34176;PMS7003;20450;49.074;9.158;2022-11-15T07:21:08;5.00;5.00;3.67
34176;PMS7003;20450;49.074;9.158;2022-11-15T07:23:55;6.25;6.25;5.00
34176;PMS7003;20450;49.074;9.158;2022-11-15T07:26:41;6.33;6.33;5.33
34176;PMS7003;20450;49.074;9.158;2022-11-15T07:29:32;7.75;6.75;6.50
34176;PMS7003;20450;49.074;9.158;2022-11-15T07:32:18;6.25;6.25;4.75
34176;PMS7003;20450;49.074;9.158;2022-11-15T07:35:04;6.25;6.25;4.25
34176;PMS7003;20450;49.074;9.158;2022-11-15T07:37:55;6.75;5.00;4.00
34176;PMS7003;20450;49.074;9.158;2022-11-15T07:40:42;5.75;5.75;4.75
34176;PMS7003;20450;49.074;9.158;2022-11-15T07:43:28;5.75;5.75;5.00
34176;PMS7003;20450;49.074;9.158;2022-11-15T07:46:15;6.00;5.00;4.25
34176;PMS7003;20450;49.074;9.158;2022-11-15T07:49:00;7.00;6.25;5.75
34176;PMS7003;20450;49.074;9.158;2022-11-15T07:51:46;8.50;7.75;5.25
34176;PMS7003;20450;49.074;9.158;2022-11-15T07:54:33;7.25;7.25;5.00
34176;PMS7003;20450;49.074;9.158;2022-11-15T07:57:18;5.25;5.25;5.00
34176;PMS7003;20450;49.074;9.158;2022-11-15T08:00:06;5.25;5.00;4.50
34176;PMS7003;20450;49.074;9.158;2022-11-15T08:02:52;8.75;6.25;5.25
34176;PMS7003;20450;49.074;9.158;2022-11-15T08:05:49;6.00;6.00;5.00
34176;PMS7003;20450;49.074;9.158;2022-11-15T08:08:36;6.50;6.00;5.00
34176;PMS7003;20450;49.074;9.158;2022-11-15T08:11:24;9.50;7.75;6.75
34176;PMS7003;20450;49.074;9.158;2022-11-15T08:14:10;6.00;6.00;5.00
34176;PMS7003;20450;49.074;9.158;2022-11-15T08:16:56;6.50;6.50;5.50
34176;PMS7003;20450;49.074;9.158;2022-11-15T08:19:42;5.50;5.50;5.25
34176;PMS7003;20450;49.074;9.158;2022-11-15T08:22:27;5.75;4.00;4.00
34176;PMS7003;20450;49.074;9.158;2022-11-15T08:25:15;8.25;6.50;5.00
34176;PMS7003;20450;49.074;9.158;2022-11-15T08:28:02;6.00;5.25;5.00
34176;PMS7003;20450;49.074;9.158;2022-11-15T08:30:50;5.50;4.50;3.50
34176;PMS7003;20450;49.074;9.158;2022-11-15T08:33:38;6.00;6.00;5.00
34176;PMS7003;20450;49.074;9.158;2022-11-15T08:36:24;6.25;6.25;5.25
34176;PMS7003;20450;49.074;9.158;2022-11-15T08:39:10;7.50;7.50;5.25
34176;PMS7003;20450;49.074;9.158;2022-11-15T08:41:56;6.00;5.00;4.00
34176;PMS7003;20450;49.074;9.158;2022-11-15T08:44:42;6.00;6.00;5.00
34176;PMS7003;20450;49.074;9.158;2022-11-15T08:47:30;6.50;6.50;5.00
34176;PMS7003;20450;49.074;9.158;2022-11-15T08:50:16;5.50;5.50;5.00
34176;PMS7003;20450;49.074;9.158;2022-11-15T08:53:05;7.75;6.00;5.50
34176;PMS7003;20450;49.074;9.158;2022-11-15T08:55:51;6.25;6.25;5.50
34176;PMS7003;20450;49.074;9.158;2022-11-15T08:58:37;7.50;7.50;6.25
34176;PMS7003;20450;49.074;9.158;2022-11-15T09:01:24;8.50;8.50;6.50
34176;PMS7003;20450;49.074;9.158;2022-11-15T09:04:10;9.25;7.50;6.75
34176;PMS7003;20450;49.074;9.158;2022-11-15T09:06:55;8.00;7.25;6.00
34176;PMS7003;20450;49.074;9.158;2022-11-15T09:09:40;8.75;7.00;6.00
34176;PMS7003;20450;49.074;9.158;2022-11-15T09:12:29;6.00;6.00;5.00
34176;PMS7003;20450;49.074;9.158;2022-11-15T09:15:18;6.00;6.00;5.25
34176;PMS7003;20450;49.074;9.158;2022-11-15T09:18:05;8.00;6.25;5.25
34176;PMS7003;20450;49.074;9.158;2022-11-15T09:20:51;5.00;5.00;3.75
34176;PMS7003;20450;49.074;9.158;2022-11-15T09:23:37;7.50;5.25;4.50
34176;PMS7003;20450;49.074;9.158;2022-11-15T09:26:23;7.25;7.25;5.00
34176;PMS7003;20450;49.074;9.158;2022-11-15T09:29:08;7.25;6.00;4.00
34176;PMS7003;20450;49.074;9.158;2022-11-15T09:31:54;6.00;6.00;5.00
34176;PMS7003;20450;49.074;9.158;2022-11-15T09:34:41;5.75;5.25;5.00
34176;PMS7003;20450;49.074;9.158;2022-11-15T09:37:27;3.50;3.50;3.00
34176;PMS7003;20450;49.074;9.158;2022-11-15T09:40:15;5.00;4.50;4.00
34176;PMS7003;20450;49.074;9.158;2022-11-15T09:43:06;3.25;3.00;2.75
34176;PMS7003;20450;49.074;9.158;2022-11-15T09:46:15;4.50;4.50;4.00
34176;PMS7003;20450;49.074;9.158;2022-11-15T09:49:19;4.75;4.75;4.25
34176;PMS7003;20450;49.074;9.158;2022-11-15T09:52:16;3.50;3.50;3.00
34176;PMS7003;20450;49.074;9.158;2022-11-15T09:54:47;4.25;4.25;3.75
34176;PMS7003;20450;49.074;9.158;2022-11-15T09:57:21;4.25;4.00;3.00
34176;PMS7003;20450;49.074;9.158;2022-11-15T10:00:02;5.00;5.00;4.00
34176;PMS7003;20450;49.074;9.158;2022-11-15T10:03:08;3.25;3.25;3.00
34176;PMS7003;20450;49.074;9.158;2022-11-15T10:05:40;7.75;5.25;4.00
34176;PMS7003;20450;49.074;9.158;2022-11-15T10:08:16;5.25;5.25;5.00
34176;PMS7003;20450;49.074;9.158;2022-11-15T10:11:12;2.00;2.00;1.50
34176;PMS7003;20450;49.074;9.158;2022-11-15T10:14:04;3.00;3.00;2.75
34176;PMS7003;20450;49.074;9.158;2022-11-15T10:16:57;4.00;4.00;3.25
34176;PMS7003;20450;49.074;9.158;2022-11-15T10:19:50;3.25;3.25;2.50
34176;PMS7003;20450;49.074;9.158;2022-11-15T10:22:37;3.75;3.75;3.00
34176;PMS7003;20450;49.074;9.158;2022-11-15T10:25:17;5.00;4.00;3.25
34176;PMS7003;20450;49.074;9.158;2022-11-15T10:27:51;4.25;4.25;3.50
34176;PMS7003;20450;49.074;9.158;2022-11-15T10:30:22;4.75;4.75;4.50
34176;PMS7003;20450;49.074;9.158;2022-11-15T10:32:56;6.25;4.25;3.25
34176;PMS7003;20450;49.074;9.158;2022-11-15T10:35:23;11.25;11.00;9.00
34176;PMS7003;20450;49.074;9.158;2022-11-15T10:38:04;6.50;5.00;4.00
34176;PMS7003;20450;49.074;9.158;2022-11-15T10:40:34;6.00;6.00;4.75
34176;PMS7003;20450;49.074;9.158;2022-11-15T10:43:04;2.75;2.75;2.75
34176;PMS7003;20450;49.074;9.158;2022-11-15T10:45:42;3.00;3.00;3.00
34176;PMS7003;20450;49.074;9.158;2022-11-15T10:48:23;3.00;3.00;2.00
34176;PMS7003;20450;49.074;9.158;2022-11-15T10:50:51;3.00;3.00;3.00
34176;PMS7003;20450;49.074;9.158;2022-11-15T10:53:22;3.25;3.25;3.25
34176;PMS7003;20450;49.074;9.158;2022-11-15T10:55:57;5.00;5.00;3.00
34176;PMS7003;20450;49.074;9.158;2022-11-15T10:58:32;4.00;4.00;3.00
34176;PMS7003;20450;49.074;9.158;2022-11-15T11:03:57;4.75;4.00;3.75
34176;PMS7003;20450;49.074;9.158;2022-11-15T11:06:27;4.00;2.00;1.00
34176;PMS7003;20450;49.074;9.158;2022-11-15T11:08:56;4.75;4.75;4.00
34176;PMS7003;20450;49.074;9.158;2022-11-15T11:11:27;4.25;4.25;3.75
34176;PMS7003;20450;49.074;9.158;2022-11-15T11:14:12;9.25;8.00;6.00
34176;PMS7003;20450;49.074;9.158;2022-11-15T11:16:46;6.75;6.75;5.75
34176;PMS7003;20450;49.074;9.158;2022-11-15T11:19:19;10.75;10.75;8.25
34176;PMS7003;20450;49.074;9.158;2022-11-15T11:22:04;7.00;7.00;6.75
34176;PMS7003;20450;49.074;9.158;2022-11-15T11:24:44;8.25;7.75;6.00
34176;PMS7003;20450;49.074;9.158;2022-11-15T11:27:32;9.50;7.00;6.25
34176;PMS7003;20450;49.074;9.158;2022-11-15T11:30:10;7.50;6.25;5.50
34176;PMS7003;20450;49.074;9.158;2022-11-15T11:32:49;9.00;9.00;7.25
34176;PMS7003;20450;49.074;9.158;2022-11-15T11:35:32;7.00;7.00;5.00
34176;PMS7003;20450;49.074;9.158;2022-11-15T11:38:29;8.75;8.00;6.00
34176;PMS7003;20450;49.074;9.158;2022-11-15T11:41:15;8.00;8.00;6.50
34176;PMS7003;20450;49.074;9.158;2022-11-15T11:44:02;9.25;7.25;6.25
34176;PMS7003;20450;49.074;9.158;2022-11-15T11:46:48;8.25;8.25;6.25
34176;PMS7003;20450;49.074;9.158;2022-11-15T11:49:23;8.50;6.25;5.75
34176;PMS7003;20450;49.074;9.158;2022-11-15T11:52:02;7.75;7.75;5.00
34176;PMS7003;20450;49.074;9.158;2022-11-15T11:54:40;5.00;5.00;4.50
34176;PMS7003;20450;49.074;9.158;2022-11-15T11:57:25;7.00;5.00;4.00
34176;PMS7003;20450;49.074;9.158;2022-11-15T12:00:12;6.75;5.50;4.75
34176;PMS7003;20450;49.074;9.158;2022-11-15T12:02:47;4.75;4.75;4.00
34176;PMS7003;20450;49.074;9.158;2022-11-15T12:05:35;5.00;5.00;4.50
34176;PMS7003;20450;49.074;9.158;2022-11-15T12:08:10;4.00;3.50;3.00
34176;PMS7003;20450;49.074;9.158;2022-11-15T12:10:59;4.75;4.75;3.50
34176;PMS7003;20450;49.074;9.158;2022-11-15T12:13:35;4.25;4.25;4.00
34176;PMS7003;20450;49.074;9.158;2022-11-15T12:16:05;6.75;6.00;4.00
34176;PMS7003;20450;49.074;9.158;2022-11-15T12:18:41;5.50;5.50;4.25
34176;PMS7003;20450;49.074;9.158;2022-11-15T12:21:16;4.75;4.75;4.00
34176;PMS7003;20450;49.074;9.158;2022-11-15T12:23:55;5.50;5.50;4.00
34176;PMS7003;20450;49.074;9.158;2022-11-15T12:26:32;6.00;4.75;4.00
34176;PMS7003;20450;49.074;9.158;2022-11-15T12:29:09;4.50;4.00;4.00
34176;PMS7003;20450;49.074;9.158;2022-11-15T12:31:54;6.50;4.00;3.75
34176;PMS7003;20450;49.074;9.158;2022-11-15T12:34:36;4.50;4.50;3.00
34176;PMS7003;20450;49.074;9.158;2022-11-15T12:40:20;5.25;3.50;3.50
34176;PMS7003;20450;49.074;9.158;2022-11-15T12:46:04;5.00;5.00;5.00
34176;PMS7003;20450;49.074;9.158;2022-11-15T13:06:36;4.25;4.25;4.00
34176;PMS7003;20450;49.074;9.158;2022-11-15T13:12:49;5.75;5.25;4.25
34176;PMS7003;20450;49.074;9.158;2022-11-15T13:15:33;7.00;4.25;3.75
34176;PMS7003;20450;49.074;9.158;2022-11-15T13:18:26;7.50;7.50;6.25
34176;PMS7003;20450;49.074;9.158;2022-11-15T13:21:04;7.75;7.75;6.00
34176;PMS7003;20450;49.074;9.158;2022-11-15T13:23:52;8.50;8.50;5.75
34176;PMS7003;20450;49.074;9.158;2022-11-15T13:26:20;8.25;8.25;6.25
34176;PMS7003;20450;49.074;9.158;2022-11-15T13:28:49;10.25;8.25;6.00
34176;PMS7003;20450;49.074;9.158;2022-11-15T13:31:22;8.50;8.50;6.25
34176;PMS7003;20450;49.074;9.158;2022-11-15T13:33:55;16.50;15.25;12.75
34176;PMS7003;20450;49.074;9.158;2022-11-15T13:36:28;7.75;7.75;5.25
34176;PMS7003;20450;49.074;9.158;2022-11-15T13:39:00;10.50;10.50;8.25
34176;PMS7003;20450;49.074;9.158;2022-11-15T13:41:30;8.25;8.25;6.00
34176;PMS7003;20450;49.074;9.158;2022-11-15T13:44:00;8.75;8.75;7.25
34176;PMS7003;20450;49.074;9.158;2022-11-15T13:46:30;10.50;7.75;7.75
34176;PMS7003;20450;49.074;9.158;2022-11-15T13:49:03;10.75;10.00;7.00
34176;PMS7003;20450;49.074;9.158;2022-11-15T13:51:44;9.75;9.75;8.00
34176;PMS7003;20450;49.074;9.158;2022-11-15T13:54:18;8.75;8.50;7.50
34176;PMS7003;20450;49.074;9.158;2022-11-15T13:56:55;9.75;8.75;7.25
34176;PMS7003;20450;49.074;9.158;2022-11-15T13:59:29;9.00;7.25;6.00
34176;PMS7003;20450;49.074;9.158;2022-11-15T14:02:01;9.50;9.50;8.25
34176;PMS7003;20450;49.074;9.158;2022-11-15T14:04:39;13.25;11.50;8.75
34176;PMS7003;20450;49.074;9.158;2022-11-15T14:07:18;8.25;8.25;6.00
34176;PMS7003;20450;49.074;9.158;2022-11-15T14:13:10;8.50;8.50;6.75
34176;PMS7003;20450;49.074;9.158;2022-11-15T14:16:12;3.50;3.50;3.00
34176;PMS7003;20450;49.074;9.158;2022-11-15T14:18:45;5.25;5.00;4.00
34176;PMS7003;20450;49.074;9.158;2022-11-15T14:21:15;3.75;2.75;2.75
34176;PMS7003;20450;49.074;9.158;2022-11-15T14:23:44;3.75;3.75;3.00
34176;PMS7003;20450;49.074;9.158;2022-11-15T14:26:27;2.50;2.50;2.00
34176;PMS7003;20450;49.074;9.158;2022-11-15T14:29:06;3.50;3.50;2.50
34176;PMS7003;20450;49.074;9.158;2022-11-15T14:31:48;4.50;4.50;3.25
34176;PMS7003;20450;49.074;9.158;2022-11-15T14:34:16;2.75;2.75;2.50
34176;PMS7003;20450;49.074;9.158;2022-11-15T14:36:42;3.00;2.00;1.25
34176;PMS7003;20450;49.074;9.158;2022-11-15T14:39:10;5.25;4.00;3.00
34176;PMS7003;20450;49.074;9.158;2022-11-15T14:41:38;2.25;2.25;2.00
34176;PMS7003;20450;49.074;9.158;2022-11-15T14:44:06;3.00;3.00;2.75
34176;PMS7003;20450;49.074;9.158;2022-11-15T14:46:35;3.25;3.25;3.00
34176;PMS7003;20450;49.074;9.158;2022-11-15T14:49:02;3.00;3.00;2.25
34176;PMS7003;20450;49.074;9.158;2022-11-15T14:51:29;4.00;4.00;3.00
34176;PMS7003;20450;49.074;9.158;2022-11-15T14:53:56;2.75;2.75;2.50
34176;PMS7003;20450;49.074;9.158;2022-11-15T14:56:23;2.00;2.00;1.75
34176;PMS7003;20450;49.074;9.158;2022-11-15T14:58:51;2.50;2.50;2.00
34176;PMS7003;20450;49.074;9.158;2022-11-15T15:01:21;3.00;3.00;2.00
34176;PMS7003;20450;49.074;9.158;2022-11-15T15:03:51;2.00;2.00;1.75
34176;PMS7003;20450;49.074;9.158;2022-11-15T15:06:19;2.50;2.50;2.50
34176;PMS7003;20450;49.074;9.158;2022-11-15T15:08:46;3.50;3.50;3.00
34176;PMS7003;20450;49.074;9.158;2022-11-15T15:11:13;2.50;2.50;2.00
34176;PMS7003;20450;49.074;9.158;2022-11-15T15:13:47;2.50;2.50;2.00
34176;PMS7003;20450;49.074;9.158;2022-11-15T15:16:15;1.50;1.50;1.25
34176;PMS7003;20450;49.074;9.158;2022-11-15T15:18:42;3.25;3.25;2.50
34176;PMS7003;20450;49.074;9.158;2022-11-15T15:21:15;2.00;2.00;1.75
34176;PMS7003;20450;49.074;9.158;2022-11-15T15:23:48;2.25;2.25;2.00
34176;PMS7003;20450;49.074;9.158;2022-11-15T15:26:15;3.75;2.75;2.00
34176;PMS7003;20450;49.074;9.158;2022-11-15T15:28:42;2.00;2.00;2.00
34176;PMS7003;20450;49.074;9.158;2022-11-15T15:31:09;4.75;4.25;3.50
34176;PMS7003;20450;49.074;9.158;2022-11-15T15:33:37;3.25;3.00;2.25
34176;PMS7003;20450;49.074;9.158;2022-11-15T15:36:05;3.00;3.00;2.25
34176;PMS7003;20450;49.074;9.158;2022-11-15T15:38:34;3.75;3.75;3.75
34176;PMS7003;20450;49.074;9.158;2022-11-15T15:41:01;2.00;2.00;1.75
34176;PMS7003;20450;49.074;9.158;2022-11-15T15:43:29;2.00;2.00;2.00
34176;PMS7003;20450;49.074;9.158;2022-11-15T15:45:56;1.75;1.75;1.25
34176;PMS7003;20450;49.074;9.158;2022-11-15T15:48:23;2.00;0.50;0.50
34176;PMS7003;20450;49.074;9.158;2022-11-15T15:50:51;2.00;2.00;2.00
34176;PMS7003;20450;49.074;9.158;2022-11-15T15:53:18;1.75;1.75;1.75
34176;PMS7003;20450;49.074;9.158;2022-11-15T15:55:44;2.50;2.50;2.00
34176;PMS7003;20450;49.074;9.158;2022-11-15T15:58:11;2.00;2.00;1.00
34176;PMS7003;20450;49.074;9.158;2022-11-15T16:00:38;1.50;1.50;1.00
34176;PMS7003;20450;49.074;9.158;2022-11-15T16:03:05;2.00;2.00;2.00
34176;PMS7003;20450;49.074;9.158;2022-11-15T16:05:32;3.75;3.75;3.00
34176;PMS7003;20450;49.074;9.158;2022-11-15T16:08:01;2.75;2.00;1.75
34176;PMS7003;20450;49.074;9.158;2022-11-15T16:10:28;2.25;2.25;2.25
34176;PMS7003;20450;49.074;9.158;2022-11-15T16:13:00;5.75;5.75;4.75
34176;PMS7003;20450;49.074;9.158;2022-11-15T16:15:28;4.25;4.25;4.00
34176;PMS7003;20450;49.074;9.158;2022-11-15T16:17:58;3.00;3.00;2.50
34176;PMS7003;20450;49.074;9.158;2022-11-15T16:20:31;6.00;6.00;4.50
34176;PMS7003;20450;49.074;9.158;2022-11-15T16:23:05;8.50;7.75;6.00
34176;PMS7003;20450;49.074;9.158;2022-11-15T16:25:39;6.75;6.75;5.75
34176;PMS7003;20450;49.074;9.158;2022-11-15T16:28:17;9.00;9.00;7.50
34176;PMS7003;20450;49.074;9.158;2022-11-15T16:30:48;8.75;6.75;5.00